sensor_id;sensor_type;location;lat;lon;timestamp;pressure;altitude;pressure_sealevel;temperature;humidity
37486;BME280;23341;50.296;18.960;2024-01-30T00:01:27;48091.69;;;-144.43;100.00
37486;BME280;23341;50.296;18.960;2024-01-30T00:06:33;48091.69;;;-144.43;100.00
37486;BME280;23341;50.296;18.960;2024-01-30T00:11:38;48083.72;;;-144.43;100.00
37486;BME280;23341;50.296;18.960;2024-01-30T00:16:43;48077.72;;;-144.43;100.00
37486;BME280;23341;50.296;18.960;2024-01-30T00:21:49;48085.69;;;-144.43;100.00
37486;BME280;23341;50.296;18.960;2024-01-30T00:26:54;48105.69;;;-144.43;100.00
37486;BME280;23341;50.296;18.960;2024-01-30T00:31:58;48105.69;;;-144.43;100.00
37486;BME280;23341;50.296;18.960;2024-01-30T00:37:05;48055.72;;;-144.43;100.00
37486;BME280;23341;50.296;18.960;2024-01-30T00:42:09;48081.72;;;-144.43;100.00
37486;BME280;23341;50.296;18.960;2024-01-30T00:47:14;48071.72;;;-144.43;100.00
37486;BME280;23341;50.296;18.960;2024-01-30T00:52:19;48105.69;;;-144.43;100.00
37486;BME280;23341;50.296;18.960;2024-01-30T00:57:24;48107.69;;;-144.43;100.00
37486;BME280;23341;50.296;18.960;2024-01-30T01:02:29;48075.72;;;-144.43;100.00
37486;BME280;23341;50.296;18.960;2024-01-30T01:07:36;48077.72;;;-144.43;100.00
37486;BME280;23341;50.296;18.960;2024-01-30T01:12:40;48097.69;;;-144.43;100.00
37486;BME280;23341;50.296;18.960;2024-01-30T01:17:45;48081.72;;;-144.43;100.00
37486;BME280;23341;50.296;18.960;2024-01-30T01:22:52;48071.72;;;-144.43;100.00
37486;BME280;23341;50.296;18.960;2024-01-30T01:27:57;48089.69;;;-144.43;100.00
37486;BME280;23341;50.296;18.960;2024-01-30T01:33:04;48121.66;;;-144.43;100.00
37486;BME280;23341;50.296;18.960;2024-01-30T01:38:11;48079.72;;;-144.43;100.00
37486;BME280;23341;50.296;18.960;2024-01-30T01:43:15;48079.72;;;-144.43;100.00
37486;BME280;23341;50.296;18.960;2024-01-30T01:48:20;48107.69;;;-144.43;100.00
37486;BME280;23341;50.296;18.960;2024-01-30T01:53:26;48087.69;;;-144.43;100.00
37486;BME280;23341;50.296;18.960;2024-01-30T01:58:31;48107.69;;;-144.43;100.00
37486;BME280;23341;50.296;18.960;2024-01-30T02:03:35;48093.69;;;-144.43;100.00
37486;BME280;23341;50.296;18.960;2024-01-30T02:08:42;48103.69;;;-144.43;100.00
37486;BME280;23341;50.296;18.960;2024-01-30T02:13:46;48101.69;;;-144.43;100.00
37486;BME280;23341;50.296;18.960;2024-01-30T02:18:51;48097.69;;;-144.43;100.00
37486;BME280;23341;50.296;18.960;2024-01-30T02:23:58;48105.69;;;-144.43;100.00
37486;BME280;23341;50.296;18.960;2024-01-30T02:29:03;48103.69;;;-144.43;100.00
37486;BME280;23341;50.296;18.960;2024-01-30T02:34:08;48095.69;;;-144.43;100.00
37486;BME280;23341;50.296;18.960;2024-01-30T02:39:14;48073.72;;;-144.43;100.00
37486;BME280;23341;50.296;18.960;2024-01-30T02:44:19;48099.69;;;-144.43;100.00
37486;BME280;23341;50.296;18.960;2024-01-30T02:49:23;48093.69;;;-144.43;100.00
37486;BME280;23341;50.296;18.960;2024-01-30T02:54:29;48065.72;;;-144.43;100.00
37486;BME280;23341;50.296;18.960;2024-01-30T02:59:34;48083.72;;;-144.43;100.00
37486;BME280;23341;50.296;18.960;2024-01-30T03:04:40;48099.69;;;-144.43;100.00
37486;BME280;23341;50.296;18.960;2024-01-30T03:09:46;48103.69;;;-144.43;100.00
37486;BME280;23341;50.296;18.960;2024-01-30T03:14:52;48105.69;;;-144.43;100.00
37486;BME280;23341;50.296;18.960;2024-01-30T03:19:57;48091.69;;;-144.43;100.00
37486;BME280;23341;50.296;18.960;2024-01-30T03:25:04;48093.69;;;-144.43;100.00
37486;BME280;23341;50.296;18.960;2024-01-30T03:30:09;48085.69;;;-144.43;100.00
37486;BME280;23341;50.296;18.960;2024-01-30T03:35:14;48099.69;;;-144.43;100.00
37486;BME280;23341;50.296;18.960;2024-01-30T03:40:20;48061.72;;;-144.43;100.00
37486;BME280;23341;50.296;18.960;2024-01-30T03:45:25;48075.72;;;-144.43;100.00
37486;BME280;23341;50.296;18.960;2024-01-30T03:50:29;48085.69;;;-144.43;100.00
37486;BME280;23341;50.296;18.960;2024-01-30T03:55:35;48073.72;;;-144.43;100.00
37486;BME280;23341;50.296;18.960;2024-01-30T04:00:40;48059.72;;;-144.43;100.00
37486;BME280;23341;50.296;18.960;2024-01-30T04:05:45;48081.72;;;-144.43;100.00
37486;BME280;23341;50.296;18.960;2024-01-30T04:10:51;48073.72;;;-144.43;100.00
37486;BME280;23341;50.296;18.960;2024-01-30T04:15:55;48119.66;;;-144.43;100.00
37486;BME280;23341;50.296;18.960;2024-01-30T04:21:00;48091.69;;;-144.43;100.00
37486;BME280;23341;50.296;18.960;2024-01-30T04:26:06;48109.69;;;-144.43;100.00
37486;BME280;23341;50.296;18.960;2024-01-30T04:31:11;48093.69;;;-144.43;100.00
37486;BME280;23341;50.296;18.960;2024-01-30T04:36:16;48071.72;;;-144.43;100.00
37486;BME280;23341;50.296;18.960;2024-01-30T04:41:22;48071.72;;;-144.43;100.00
37486;BME280;23341;50.296;18.960;2024-01-30T04:46:26;48101.69;;;-144.43;100.00
37486;BME280;23341;50.296;18.960;2024-01-30T04:51:31;48097.69;;;-144.43;100.00
37486;BME280;23341;50.296;18.960;2024-01-30T04:56:37;48089.69;;;-144.43;100.00
37486;BME280;23341;50.296;18.960;2024-01-30T05:01:42;48091.69;;;-144.43;100.00
37486;BME280;23341;50.296;18.960;2024-01-30T05:06:47;48071.72;;;-144.43;100.00
37486;BME280;23341;50.296;18.960;2024-01-30T05:11:53;48069.72;;;-144.43;100.00
37486;BME280;23341;50.296;18.960;2024-01-30T05:16:57;48115.66;;;-144.43;100.00
37486;BME280;23341;50.296;18.960;2024-01-30T05:22:02;48083.72;;;-144.43;100.00
37486;BME280;23341;50.296;18.960;2024-01-30T05:27:08;48091.69;;;-144.43;100.00
37486;BME280;23341;50.296;18.960;2024-01-30T05:32:12;48059.72;;;-144.43;100.00
37486;BME280;23341;50.296;18.960;2024-01-30T05:37:17;48115.66;;;-144.43;100.00
37486;BME280;23341;50.296;18.960;2024-01-30T05:42:23;48097.69;;;-144.43;100.00
37486;BME280;23341;50.296;18.960;2024-01-30T05:47:27;48079.72;;;-144.43;100.00
37486;BME280;23341;50.296;18.960;2024-01-30T05:52:32;48081.72;;;-144.43;100.00
37486;BME280;23341;50.296;18.960;2024-01-30T05:57:38;48071.72;;;-144.43;100.00
37486;BME280;23341;50.296;18.960;2024-01-30T06:02:43;48135.66;;;-144.43;100.00
37486;BME280;23341;50.296;18.960;2024-01-30T06:07:47;48079.72;;;-144.43;100.00
37486;BME280;23341;50.296;18.960;2024-01-30T06:12:53;48061.72;;;-144.43;100.00
37486;BME280;23341;50.296;18.960;2024-01-30T06:17:57;48083.72;;;-144.43;100.00
37486;BME280;23341;50.296;18.960;2024-01-30T06:23:02;48115.66;;;-144.43;100.00
37486;BME280;23341;50.296;18.960;2024-01-30T06:28:08;48073.72;;;-144.43;100.00
37486;BME280;23341;50.296;18.960;2024-01-30T06:33:13;48057.72;;;-144.43;100.00
37486;BME280;23341;50.296;18.960;2024-01-30T06:38:18;48099.69;;;-144.43;100.00
37486;BME280;23341;50.296;18.960;2024-01-30T06:43:24;48083.72;;;-144.43;100.00
37486;BME280;23341;50.296;18.960;2024-01-30T06:48:28;48077.72;;;-144.43;100.00
37486;BME280;23341;50.296;18.960;2024-01-30T06:53:33;48107.69;;;-144.43;100.00
37486;BME280;23341;50.296;18.960;2024-01-30T06:58:39;48081.72;;;-144.43;100.00
37486;BME280;23341;50.296;18.960;2024-01-30T07:03:44;48103.69;;;-144.43;100.00
37486;BME280;23341;50.296;18.960;2024-01-30T07:08:49;48079.72;;;-144.43;100.00
37486;BME280;23341;50.296;18.960;2024-01-30T07:13:55;48081.72;;;-144.43;100.00
37486;BME280;23341;50.296;18.960;2024-01-30T07:19:00;48079.72;;;-144.43;100.00
37486;BME280;23341;50.296;18.960;2024-01-30T07:24:04;48083.72;;;-144.43;100.00
37486;BME280;23341;50.296;18.960;2024-01-30T07:29:10;48051.75;;;-144.43;100.00
37486;BME280;23341;50.296;18.960;2024-01-30T07:34:15;48091.69;;;-144.43;100.00
37486;BME280;23341;50.296;18.960;2024-01-30T07:39:19;48113.69;;;-144.43;100.00
37486;BME280;23341;50.296;18.960;2024-01-30T07:44:25;48115.66;;;-144.43;89.58
37486;BME280;23341;50.296;18.960;2024-01-30T07:49:30;48129.66;;;-144.43;79.82
37486;BME280;23341;50.296;18.960;2024-01-30T07:54:40;48111.69;;;-144.43;82.63
37486;BME280;23341;50.296;18.960;2024-01-30T07:59:47;48137.66;;;-144.43;81.93
37486;BME280;23341;50.296;18.960;2024-01-30T08:04:51;48143.66;;;-144.43;84.79
37486;BME280;23341;50.296;18.960;2024-01-30T08:09:56;48117.66;;;-144.43;80.62
37486;BME280;23341;50.296;18.960;2024-01-30T08:15:03;48095.69;;;-144.43;80.35
37486;BME280;23341;50.296;18.960;2024-01-30T08:20:08;48115.66;;;-144.43;79.08
37486;BME280;23341;50.296;18.960;2024-01-30T08:25:15;48091.69;;;-144.43;76.97
37486;BME280;23341;50.296;18.960;2024-01-30T08:30:21;48123.66;;;-144.43;80.77
37486;BME280;23341;50.296;18.960;2024-01-30T08:35:26;48131.66;;;-144.43;84.62
37486;BME280;23341;50.296;18.960;2024-01-30T08:40:30;48117.66;;;-144.43;84.55
37486;BME280;23341;50.296;18.960;2024-01-30T08:45:36;48133.66;;;-144.43;86.37
37486;BME280;23341;50.296;18.960;2024-01-30T08:50:41;48121.66;;;-144.43;82.78
37486;BME280;23341;50.296;18.960;2024-01-30T08:55:45;48109.69;;;-144.43;81.11
37486;BME280;23341;50.296;18.960;2024-01-30T09:00:51;48141.66;;;-144.43;83.95
37486;BME280;23341;50.296;18.960;2024-01-30T09:05:56;48135.66;;;-144.43;83.71
37486;BME280;23341;50.296;18.960;2024-01-30T09:11:00;48115.66;;;-144.43;81.51
37486;BME280;23341;50.296;18.960;2024-01-30T09:16:07;48131.66;;;-144.43;75.45
37486;BME280;23341;50.296;18.960;2024-01-30T09:21:11;48143.66;;;-144.43;77.45
37486;BME280;23341;50.296;18.960;2024-01-30T09:26:16;48149.63;;;-144.43;79.05
37486;BME280;23341;50.296;18.960;2024-01-30T09:31:22;48147.63;;;-144.43;73.54
37486;BME280;23341;50.296;18.960;2024-01-30T09:36:27;48135.66;;;-144.43;75.57
37486;BME280;23341;50.296;18.960;2024-01-30T09:41:32;48139.66;;;-144.43;74.53
37486;BME280;23341;50.296;18.960;2024-01-30T09:46:39;48111.69;;;-144.43;76.21
37486;BME280;23341;50.296;18.960;2024-01-30T09:51:44;48147.63;;;-144.43;74.17
37486;BME280;23341;50.296;18.960;2024-01-30T09:56:49;48157.63;;;-144.43;72.65
37486;BME280;23341;50.296;18.960;2024-01-30T10:01:55;48175.63;;;-144.43;70.05
37486;BME280;23341;50.296;18.960;2024-01-30T10:07:01;48123.66;;;-144.43;70.47
37486;BME280;23341;50.296;18.960;2024-01-30T10:12:07;48137.66;;;-144.43;69.47
37486;BME280;23341;50.296;18.960;2024-01-30T10:17:14;48141.66;;;-144.43;66.89
37486;BME280;23341;50.296;18.960;2024-01-30T10:22:30;48147.63;;;-144.43;66.84
37486;BME280;23341;50.296;18.960;2024-01-30T10:27:35;48135.66;;;-144.43;64.72
37486;BME280;23341;50.296;18.960;2024-01-30T10:32:40;48133.66;;;-144.43;66.97
37486;BME280;23341;50.296;18.960;2024-01-30T10:37:47;48161.63;;;-144.43;65.63
37486;BME280;23341;50.296;18.960;2024-01-30T10:42:53;48137.66;;;-144.43;66.30
37486;BME280;23341;50.296;18.960;2024-01-30T10:48:01;48127.66;;;-144.43;65.89
37486;BME280;23341;50.296;18.960;2024-01-30T10:53:09;48143.66;;;-144.43;62.64
37486;BME280;23341;50.296;18.960;2024-01-30T10:58:15;48139.66;;;-144.43;63.11
37486;BME280;23341;50.296;18.960;2024-01-30T11:03:21;48137.66;;;-144.43;63.74
37486;BME280;23341;50.296;18.960;2024-01-30T11:08:26;48143.66;;;-144.43;64.55
37486;BME280;23341;50.296;18.960;2024-01-30T11:13:32;48149.63;;;-144.43;62.22
37486;BME280;23341;50.296;18.960;2024-01-30T11:18:38;48125.66;;;-144.43;64.25
37486;BME280;23341;50.296;18.960;2024-01-30T11:23:42;48139.66;;;-144.43;60.71
37486;BME280;23341;50.296;18.960;2024-01-30T11:28:52;48175.63;;;-144.43;61.90
37486;BME280;23341;50.296;18.960;2024-01-30T11:33:58;48159.63;;;-144.43;59.28
37486;BME280;23341;50.296;18.960;2024-01-30T11:39:03;48151.63;;;-144.43;61.42
37486;BME280;23341;50.296;18.960;2024-01-30T11:44:08;48147.63;;;-144.43;61.22
37486;BME280;23341;50.296;18.960;2024-01-30T11:49:15;48135.66;;;-144.43;61.07
37486;BME280;23341;50.296;18.960;2024-01-30T11:54:20;48179.59;;;-144.43;61.89
37486;BME280;23341;50.296;18.960;2024-01-30T11:59:25;48165.63;;;-144.43;62.52
37486;BME280;23341;50.296;18.960;2024-01-30T12:04:31;48165.63;;;-144.43;61.62
37486;BME280;23341;50.296;18.960;2024-01-30T12:09:35;48157.63;;;-144.43;62.49
37486;BME280;23341;50.296;18.960;2024-01-30T12:14:40;48179.59;;;-144.43;63.69
37486;BME280;23341;50.296;18.960;2024-01-30T12:19:47;48161.63;;;-144.43;61.73
37486;BME280;23341;50.296;18.960;2024-01-30T12:24:51;48157.63;;;-144.43;63.03
37486;BME280;23341;50.296;18.960;2024-01-30T12:29:57;48145.66;;;-144.43;63.88
37486;BME280;23341;50.296;18.960;2024-01-30T12:35:07;48171.63;;;-144.43;61.90
37486;BME280;23341;50.296;18.960;2024-01-30T12:40:14;48149.63;;;-144.43;61.38
37486;BME280;23341;50.296;18.960;2024-01-30T12:45:19;48183.59;;;-144.43;62.70
37486;BME280;23341;50.296;18.960;2024-01-30T12:50:27;48153.63;;;-144.43;62.99
37486;BME280;23341;50.296;18.960;2024-01-30T12:55:32;48161.63;;;-144.43;65.17
37486;BME280;23341;50.296;18.960;2024-01-30T13:00:36;48179.59;;;-144.43;63.51
37486;BME280;23341;50.296;18.960;2024-01-30T13:05:43;48155.63;;;-144.43;64.76
37486;BME280;23341;50.296;18.960;2024-01-30T13:10:47;48137.66;;;-144.43;65.60
37486;BME280;23341;50.296;18.960;2024-01-30T13:15:52;48149.63;;;-144.43;66.36
37486;BME280;23341;50.296;18.960;2024-01-30T13:20:58;48137.66;;;-144.43;67.69
37486;BME280;23341;50.296;18.960;2024-01-30T13:26:03;48111.69;;;-144.43;70.20
37486;BME280;23341;50.296;18.960;2024-01-30T13:31:07;48179.59;;;-144.43;70.24
37486;BME280;23341;50.296;18.960;2024-01-30T13:36:13;48143.66;;;-144.43;69.23
37486;BME280;23341;50.296;18.960;2024-01-30T13:41:18;48165.63;;;-144.43;70.61
37486;BME280;23341;50.296;18.960;2024-01-30T13:46:24;48141.66;;;-144.43;71.78
37486;BME280;23341;50.296;18.960;2024-01-30T13:51:30;48127.66;;;-144.43;72.59
37486;BME280;23341;50.296;18.960;2024-01-30T13:56:35;48175.63;;;-144.43;73.12
37486;BME280;23341;50.296;18.960;2024-01-30T14:01:39;48137.66;;;-144.43;73.25
37486;BME280;23341;50.296;18.960;2024-01-30T14:06:45;48157.63;;;-144.43;73.87
37486;BME280;23341;50.296;18.960;2024-01-30T14:12:02;48177.63;;;-144.43;75.16
37486;BME280;23341;50.296;18.960;2024-01-30T14:17:07;48149.63;;;-144.43;75.87
37486;BME280;23341;50.296;18.960;2024-01-30T14:22:13;48149.63;;;-144.43;75.34
37486;BME280;23341;50.296;18.960;2024-01-30T14:27:18;48155.63;;;-144.43;74.60
37486;BME280;23341;50.296;18.960;2024-01-30T14:32:23;48147.63;;;-144.43;73.62
37486;BME280;23341;50.296;18.960;2024-01-30T14:37:29;48179.59;;;-144.43;69.82
37486;BME280;23341;50.296;18.960;2024-01-30T14:42:34;48183.59;;;-144.43;66.82
37486;BME280;23341;50.296;18.960;2024-01-30T14:47:39;48159.63;;;-144.43;65.25
37486;BME280;23341;50.296;18.960;2024-01-30T14:52:45;48161.63;;;-144.43;66.71
37486;BME280;23341;50.296;18.960;2024-01-30T14:57:50;48165.63;;;-144.43;67.61
37486;BME280;23341;50.296;18.960;2024-01-30T15:02:54;48163.63;;;-144.43;71.10
37486;BME280;23341;50.296;18.960;2024-01-30T15:08:00;48157.63;;;-144.43;72.36
37486;BME280;23341;50.296;18.960;2024-01-30T15:13:05;48143.66;;;-144.43;74.66
37486;BME280;23341;50.296;18.960;2024-01-30T15:18:10;48127.66;;;-144.43;77.60
37486;BME280;23341;50.296;18.960;2024-01-30T15:23:16;48129.66;;;-144.43;80.77
37486;BME280;23341;50.296;18.960;2024-01-30T15:28:33;48145.66;;;-144.43;83.87
37486;BME280;23341;50.296;18.960;2024-01-30T15:33:38;48165.63;;;-144.43;85.14
37486;BME280;23341;50.296;18.960;2024-01-30T15:38:44;48119.66;;;-144.43;87.48
37486;BME280;23341;50.296;18.960;2024-01-30T15:43:48;48113.69;;;-144.43;88.56
37486;BME280;23341;50.296;18.960;2024-01-30T15:48:54;48147.63;;;-144.43;89.89
37486;BME280;23341;50.296;18.960;2024-01-30T15:54:00;48129.66;;;-144.43;91.89
37486;BME280;23341;50.296;18.960;2024-01-30T15:59:05;48097.69;;;-144.43;91.74
37486;BME280;23341;50.296;18.960;2024-01-30T16:04:09;48133.66;;;-144.43;91.68
37486;BME280;23341;50.296;18.960;2024-01-30T16:09:15;48129.66;;;-144.43;91.95
37486;BME280;23341;50.296;18.960;2024-01-30T16:14:19;48101.69;;;-144.43;91.97
37486;BME280;23341;50.296;18.960;2024-01-30T16:19:24;48125.66;;;-144.43;91.54
37486;BME280;23341;50.296;18.960;2024-01-30T16:24:30;48127.66;;;-144.43;93.33
37486;BME280;23341;50.296;18.960;2024-01-30T16:29:35;48145.66;;;-144.43;91.25
37486;BME280;23341;50.296;18.960;2024-01-30T16:34:39;48119.66;;;-144.43;92.32
37486;BME280;23341;50.296;18.960;2024-01-30T16:39:45;48127.66;;;-144.43;92.88
37486;BME280;23341;50.296;18.960;2024-01-30T16:44:50;48147.63;;;-144.43;93.09
37486;BME280;23341;50.296;18.960;2024-01-30T16:49:55;48133.66;;;-144.43;94.37
37486;BME280;23341;50.296;18.960;2024-01-30T16:55:01;48117.66;;;-144.43;96.40
37486;BME280;23341;50.296;18.960;2024-01-30T17:00:07;48117.66;;;-144.43;96.26
37486;BME280;23341;50.296;18.960;2024-01-30T17:05:11;48115.66;;;-144.43;97.87
37486;BME280;23341;50.296;18.960;2024-01-30T17:10:30;48121.66;;;-144.43;100.00
37486;BME280;23341;50.296;18.960;2024-01-30T17:15:37;48105.69;;;-144.43;99.97
37486;BME280;23341;50.296;18.960;2024-01-30T17:20:42;48103.69;;;-144.43;100.00
37486;BME280;23341;50.296;18.960;2024-01-30T17:25:49;48131.66;;;-144.43;100.00
37486;BME280;23341;50.296;18.960;2024-01-30T17:30:54;48099.69;;;-144.43;100.00
37486;BME280;23341;50.296;18.960;2024-01-30T17:35:59;48103.69;;;-144.43;100.00
37486;BME280;23341;50.296;18.960;2024-01-30T17:41:05;48127.66;;;-144.43;100.00
37486;BME280;23341;50.296;18.960;2024-01-30T17:46:14;48115.66;;;-144.43;100.00
37486;BME280;23341;50.296;18.960;2024-01-30T17:51:19;48099.69;;;-144.43;100.00
37486;BME280;23341;50.296;18.960;2024-01-30T17:56:25;48113.69;;;-144.43;100.00
37486;BME280;23341;50.296;18.960;2024-01-30T18:01:29;48115.66;;;-144.43;100.00
37486;BME280;23341;50.296;18.960;2024-01-30T18:06:34;48073.72;;;-144.43;100.00
37486;BME280;23341;50.296;18.960;2024-01-30T18:11:40;48119.66;;;-144.43;100.00
37486;BME280;23341;50.296;18.960;2024-01-30T18:16:44;48103.69;;;-144.43;100.00
37486;BME280;23341;50.296;18.960;2024-01-30T18:21:49;48075.72;;;-144.43;100.00
37486;BME280;23341;50.296;18.960;2024-01-30T18:26:55;48097.69;;;-144.43;100.00
37486;BME280;23341;50.296;18.960;2024-01-30T18:31:59;48075.72;;;-144.43;100.00
37486;BME280;23341;50.296;18.960;2024-01-30T18:37:04;48123.66;;;-144.43;100.00
37486;BME280;23341;50.296;18.960;2024-01-30T18:42:11;48067.72;;;-144.43;100.00
37486;BME280;23341;50.296;18.960;2024-01-30T18:47:16;48099.69;;;-144.43;100.00
37486;BME280;23341;50.296;18.960;2024-01-30T18:52:20;48093.69;;;-144.43;100.00
37486;BME280;23341;50.296;18.960;2024-01-30T18:57:26;48111.69;;;-144.43;100.00
37486;BME280;23341;50.296;18.960;2024-01-30T19:02:31;48093.69;;;-144.43;100.00
37486;BME280;23341;50.296;18.960;2024-01-30T19:07:35;48101.69;;;-144.43;100.00
37486;BME280;23341;50.296;18.960;2024-01-30T19:12:41;48085.69;;;-144.43;100.00
37486;BME280;23341;50.296;18.960;2024-01-30T19:17:47;48083.72;;;-144.43;100.00
37486;BME280;23341;50.296;18.960;2024-01-30T19:22:52;48087.69;;;-144.43;100.00
37486;BME280;23341;50.296;18.960;2024-01-30T19:27:58;48099.69;;;-144.43;100.00
37486;BME280;23341;50.296;18.960;2024-01-30T19:33:03;48095.69;;;-144.43;100.00
37486;BME280;23341;50.296;18.960;2024-01-30T19:38:08;48103.69;;;-144.43;100.00
37486;BME280;23341;50.296;18.960;2024-01-30T19:43:14;48095.69;;;-144.43;100.00
37486;BME280;23341;50.296;18.960;2024-01-30T19:48:19;48071.72;;;-144.43;100.00
37486;BME280;23341;50.296;18.960;2024-01-30T19:53:24;48083.72;;;-144.43;100.00
37486;BME280;23341;50.296;18.960;2024-01-30T19:58:30;48077.72;;;-144.43;97.30
37486;BME280;23341;50.296;18.960;2024-01-30T20:03:35;48091.69;;;-144.43;96.74
37486;BME280;23341;50.296;18.960;2024-01-30T20:08:39;48089.69;;;-144.43;92.81
37486;BME280;23341;50.296;18.960;2024-01-30T20:13:45;48075.72;;;-144.43;92.68
37486;BME280;23341;50.296;18.960;2024-01-30T20:18:50;48109.69;;;-144.43;92.09
37486;BME280;23341;50.296;18.960;2024-01-30T20:23:54;48091.69;;;-144.43;92.84
37486;BME280;23341;50.296;18.960;2024-01-30T20:29:00;48099.69;;;-144.43;91.45
37486;BME280;23341;50.296;18.960;2024-01-30T20:34:05;48049.75;;;-144.43;89.63
37486;BME280;23341;50.296;18.960;2024-01-30T20:39:09;48101.69;;;-144.43;89.38
37486;BME280;23341;50.296;18.960;2024-01-30T20:44:16;48083.72;;;-144.43;89.49
37486;BME280;23341;50.296;18.960;2024-01-30T20:49:22;48123.66;;;-144.43;88.14
37486;BME280;23341;50.296;18.960;2024-01-30T20:54:26;48079.72;;;-144.43;87.96
37486;BME280;23341;50.296;18.960;2024-01-30T20:59:32;48067.72;;;-144.43;88.52
37486;BME280;23341;50.296;18.960;2024-01-30T21:04:37;48095.69;;;-144.43;88.75
37486;BME280;23341;50.296;18.960;2024-01-30T21:09:41;48093.69;;;-144.43;88.12
37486;BME280;23341;50.296;18.960;2024-01-30T21:14:47;48069.72;;;-144.43;88.70
37486;BME280;23341;50.296;18.960;2024-01-30T21:19:54;48081.72;;;-144.43;88.75
37486;BME280;23341;50.296;18.960;2024-01-30T21:24:58;48063.72;;;-144.43;88.30
37486;BME280;23341;50.296;18.960;2024-01-30T21:30:06;48091.69;;;-144.43;89.47
37486;BME280;23341;50.296;18.960;2024-01-30T21:35:11;48095.69;;;-144.43;89.50
37486;BME280;23341;50.296;18.960;2024-01-30T21:40:16;48081.72;;;-144.43;89.47
37486;BME280;23341;50.296;18.960;2024-01-30T21:45:22;48095.69;;;-144.43;90.50
37486;BME280;23341;50.296;18.960;2024-01-30T21:50:27;48061.72;;;-144.43;90.03
37486;BME280;23341;50.296;18.960;2024-01-30T21:55:32;48067.72;;;-144.43;91.38
37486;BME280;23341;50.296;18.960;2024-01-30T22:00:38;48083.72;;;-144.43;90.31
37486;BME280;23341;50.296;18.960;2024-01-30T22:05:43;48087.69;;;-144.43;91.24
37486;BME280;23341;50.296;18.960;2024-01-30T22:10:47;48091.69;;;-144.43;90.58
37486;BME280;23341;50.296;18.960;2024-01-30T22:15:53;48113.69;;;-144.43;92.05
37486;BME280;23341;50.296;18.960;2024-01-30T22:20:58;48085.69;;;-144.43;91.80
37486;BME280;23341;50.296;18.960;2024-01-30T22:26:02;48111.69;;;-144.43;92.61
37486;BME280;23341;50.296;18.960;2024-01-30T22:31:08;48095.69;;;-144.43;93.49
37486;BME280;23341;50.296;18.960;2024-01-30T22:36:13;48111.69;;;-144.43;95.12
37486;BME280;23341;50.296;18.960;2024-01-30T22:41:21;48091.69;;;-144.43;95.84
37486;BME280;23341;50.296;18.960;2024-01-30T22:46:27;48083.72;;;-144.43;96.96
37486;BME280;23341;50.296;18.960;2024-01-30T22:51:32;48037.75;;;-144.43;97.77
37486;BME280;23341;50.296;18.960;2024-01-30T22:56:37;48071.72;;;-144.43;98.52
37486;BME280;23341;50.296;18.960;2024-01-30T23:01:42;48109.69;;;-144.43;99.69
37486;BME280;23341;50.296;18.960;2024-01-30T23:06:47;48085.69;;;-144.43;100.00
37486;BME280;23341;50.296;18.960;2024-01-30T23:11:51;48107.69;;;-144.43;100.00
37486;BME280;23341;50.296;18.960;2024-01-30T23:16:58;48081.72;;;-144.43;100.00
37486;BME280;23341;50.296;18.960;2024-01-30T23:22:03;48077.72;;;-144.43;100.00
37486;BME280;23341;50.296;18.960;2024-01-30T23:27:07;48061.72;;;-144.43;100.00
37486;BME280;23341;50.296;18.960;2024-01-30T23:32:13;48103.69;;;-144.43;100.00
37486;BME280;23341;50.296;18.960;2024-01-30T23:37:31;48085.69;;;-144.43;100.00
37486;BME280;23341;50.296;18.960;2024-01-30T23:42:36;48079.72;;;-144.43;100.00
37486;BME280;23341;50.296;18.960;2024-01-30T23:47:42;48087.69;;;-144.43;100.00
37486;BME280;23341;50.296;18.960;2024-01-30T23:52:46;48091.69;;;-144.43;100.00
37486;BME280;23341;50.296;18.960;2024-01-30T23:57:52;48097.69;;;-144.43;100.00
